sensor_id;sensor_type;location;lat;lon;timestamp;pressure;altitude;pressure_sealevel;temperature;humidity
61769;BME280;47669;48.712;9.016;2022-12-10T00:00:34;95302.38;;;-0.88;100.00
61769;BME280;47669;48.712;9.016;2022-12-10T00:02:59;95301.41;;;-0.87;100.00
61769;BME280;47669;48.712;9.016;2022-12-10T00:05:24;95316.16;;;-0.95;100.00
61769;BME280;47669;48.712;9.016;2022-12-10T00:07:50;95309.41;;;-0.96;100.00
61769;BME280;47669;48.712;9.016;2022-12-10T00:10:15;95309.88;;;-0.93;100.00
61769;BME280;47669;48.712;9.016;2022-12-10T00:12:40;95311.13;;;-0.89;100.00
61769;BME280;47669;48.712;9.016;2022-12-10T00:15:07;95309.59;;;-0.83;100.00
61769;BME280;47669;48.712;9.016;2022-12-10T00:17:32;95312.69;;;-0.88;100.00
61769;BME280;47669;48.712;9.016;2022-12-10T00:19:57;95315.66;;;-0.91;100.00
61769;BME280;47669;48.712;9.016;2022-12-10T00:22:22;95320.72;;;-0.83;100.00
61769;BME280;47669;48.712;9.016;2022-12-10T00:24:48;95318.25;;;-0.91;100.00
61769;BME280;47669;48.712;9.016;2022-12-10T00:27:13;95313.88;;;-0.90;100.00
61769;BME280;47669;48.712;9.016;2022-12-10T00:29:39;95323.50;;;-0.84;100.00
61769;BME280;47669;48.712;9.016;2022-12-10T00:32:04;95313.78;;;-0.97;100.00
61769;BME280;47669;48.712;9.016;2022-12-10T00:34:31;95314.84;;;-0.91;100.00
61769;BME280;47669;48.712;9.016;2022-12-10T00:36:56;95315.38;;;-0.96;100.00
61769;BME280;47669;48.712;9.016;2022-12-10T00:39:21;95308.25;;;-0.94;100.00
61769;BME280;47669;48.712;9.016;2022-12-10T00:41:47;95312.34;;;-1.00;100.00
61769;BME280;47669;48.712;9.016;2022-12-10T00:44:13;95309.13;;;-1.02;100.00
61769;BME280;47669;48.712;9.016;2022-12-10T00:46:38;95312.00;;;-0.96;100.00
61769;BME280;47669;48.712;9.016;2022-12-10T00:49:04;95315.13;;;-1.01;100.00
61769;BME280;47669;48.712;9.016;2022-12-10T00:51:29;95307.72;;;-0.89;100.00
61769;BME280;47669;48.712;9.016;2022-12-10T00:53:56;95318.06;;;-0.89;100.00
61769;BME280;47669;48.712;9.016;2022-12-10T00:56:25;95321.44;;;-0.89;100.00
61769;BME280;47669;48.712;9.016;2022-12-10T00:58:51;95320.28;;;-1.01;100.00
61769;BME280;47669;48.712;9.016;2022-12-10T01:01:24;95326.50;;;-0.95;100.00
61769;BME280;47669;48.712;9.016;2022-12-10T01:03:52;95330.44;;;-0.85;100.00
61769;BME280;47669;48.712;9.016;2022-12-10T01:06:45;95327.22;;;-1.02;100.00
61769;BME280;47669;48.712;9.016;2022-12-10T01:09:14;95335.34;;;-0.75;100.00
61769;BME280;47669;48.712;9.016;2022-12-10T01:11:41;95335.00;;;-0.87;100.00
61769;BME280;47669;48.712;9.016;2022-12-10T01:14:09;95345.84;;;-1.06;100.00
61769;BME280;47669;48.712;9.016;2022-12-10T01:16:34;95339.09;;;-0.92;100.00
61769;BME280;47669;48.712;9.016;2022-12-10T01:19:00;95341.50;;;-0.91;100.00
61769;BME280;47669;48.712;9.016;2022-12-10T01:21:27;95350.03;;;-0.90;100.00
61769;BME280;47669;48.712;9.016;2022-12-10T01:23:53;95352.88;;;-1.00;100.00
61769;BME280;47669;48.712;9.016;2022-12-10T01:26:24;95358.84;;;-1.00;100.00
61769;BME280;47669;48.712;9.016;2022-12-10T01:28:51;95361.00;;;-0.88;100.00
61769;BME280;47669;48.712;9.016;2022-12-10T01:31:19;95370.88;;;-0.92;100.00
61769;BME280;47669;48.712;9.016;2022-12-10T01:33:45;95365.47;;;-0.97;100.00
61769;BME280;47669;48.712;9.016;2022-12-10T01:36:14;95357.00;;;-0.91;100.00
61769;BME280;47669;48.712;9.016;2022-12-10T01:38:40;95359.31;;;-0.96;100.00
61769;BME280;47669;48.712;9.016;2022-12-10T01:41:07;95361.63;;;-1.01;100.00
61769;BME280;47669;48.712;9.016;2022-12-10T01:46:20;95357.78;;;-0.90;100.00
61769;BME280;47669;48.712;9.016;2022-12-10T01:48:45;95363.84;;;-0.98;100.00
61769;BME280;47669;48.712;9.016;2022-12-10T01:51:12;95359.66;;;-0.84;100.00
61769;BME280;47669;48.712;9.016;2022-12-10T01:53:38;95363.22;;;-1.00;100.00
61769;BME280;47669;48.712;9.016;2022-12-10T01:56:03;95373.56;;;-1.00;100.00
61769;BME280;47669;48.712;9.016;2022-12-10T01:58:29;95369.81;;;-0.97;100.00
61769;BME280;47669;48.712;9.016;2022-12-10T02:01:05;95371.13;;;-1.02;100.00
61769;BME280;47669;48.712;9.016;2022-12-10T02:03:44;95368.75;;;-1.03;100.00
61769;BME280;47669;48.712;9.016;2022-12-10T02:07:12;95372.84;;;-0.94;100.00
61769;BME280;47669;48.712;9.016;2022-12-10T02:09:23;95378.72;;;-1.00;100.00
61769;BME280;47669;48.712;9.016;2022-12-10T02:14:33;95375.69;;;-1.04;100.00
61769;BME280;47669;48.712;9.016;2022-12-10T02:17:09;95367.75;;;-1.02;100.00
61769;BME280;47669;48.712;9.016;2022-12-10T02:19:53;95374.56;;;-0.86;100.00
61769;BME280;47669;48.712;9.016;2022-12-10T02:22:20;95368.66;;;-0.95;100.00
61769;BME280;47669;48.712;9.016;2022-12-10T02:24:49;95358.22;;;-1.02;100.00
61769;BME280;47669;48.712;9.016;2022-12-10T02:27:32;95360.28;;;-0.97;100.00
61769;BME280;47669;48.712;9.016;2022-12-10T02:30:00;95368.31;;;-0.92;100.00
61769;BME280;47669;48.712;9.016;2022-12-10T02:32:31;95354.16;;;-0.81;100.00
61769;BME280;47669;48.712;9.016;2022-12-10T02:35:01;95347.22;;;-0.81;100.00
61769;BME280;47669;48.712;9.016;2022-12-10T02:37:39;95342.50;;;-0.77;100.00
61769;BME280;47669;48.712;9.016;2022-12-10T02:40:10;95334.44;;;-0.82;100.00
61769;BME280;47669;48.712;9.016;2022-12-10T02:42:40;95327.06;;;-0.85;100.00
61769;BME280;47669;48.712;9.016;2022-12-10T02:45:08;95320.91;;;-0.99;100.00
61769;BME280;47669;48.712;9.016;2022-12-10T02:47:34;95325.16;;;-1.06;100.00
61769;BME280;47669;48.712;9.016;2022-12-10T02:50:00;95318.94;;;-0.97;100.00
61769;BME280;47669;48.712;9.016;2022-12-10T02:52:26;95333.53;;;-1.04;100.00
61769;BME280;47669;48.712;9.016;2022-12-10T02:54:52;95335.22;;;-1.11;100.00
61769;BME280;47669;48.712;9.016;2022-12-10T03:05:24;95328.25;;;-0.58;100.00
61769;BME280;47669;48.712;9.016;2022-12-10T03:07:57;95326.97;;;-0.92;100.00
61769;BME280;47669;48.712;9.016;2022-12-10T03:10:35;95337.25;;;-0.84;100.00
61769;BME280;47669;48.712;9.016;2022-12-10T03:13:07;95336.78;;;-0.87;100.00
61769;BME280;47669;48.712;9.016;2022-12-10T03:15:37;95328.31;;;-0.81;100.00
61769;BME280;47669;48.712;9.016;2022-12-10T03:18:06;95321.44;;;-0.89;100.00
61769;BME280;47669;48.712;9.016;2022-12-10T03:20:39;95303.16;;;-1.02;100.00
61769;BME280;47669;48.712;9.016;2022-12-10T03:23:08;95303.78;;;-1.00;100.00
61769;BME280;47669;48.712;9.016;2022-12-10T03:25:35;95316.63;;;-1.07;100.00
61769;BME280;47669;48.712;9.016;2022-12-10T03:28:02;95316.63;;;-1.07;100.00
61769;BME280;47669;48.712;9.016;2022-12-10T03:30:29;95318.84;;;-1.04;100.00
61769;BME280;47669;48.712;9.016;2022-12-10T03:32:57;95316.50;;;-1.13;100.00
61769;BME280;47669;48.712;9.016;2022-12-10T03:35:23;95326.84;;;-1.13;100.00
61769;BME280;47669;48.712;9.016;2022-12-10T03:37:50;95334.78;;;-1.00;100.00
61769;BME280;47669;48.712;9.016;2022-12-10T03:40:18;95336.13;;;-1.04;100.00
61769;BME280;47669;48.712;9.016;2022-12-10T03:42:45;95332.28;;;-1.08;100.00
61769;BME280;47669;48.712;9.016;2022-12-10T03:45:10;95344.50;;;-1.02;100.00
61769;BME280;47669;48.712;9.016;2022-12-10T03:47:35;95339.69;;;-1.05;100.00
61769;BME280;47669;48.712;9.016;2022-12-10T03:50:01;95347.25;;;-1.04;100.00
61769;BME280;47669;48.712;9.016;2022-12-10T03:52:26;95343.53;;;-1.01;100.00
61769;BME280;47669;48.712;9.016;2022-12-10T03:54:51;95352.34;;;-0.95;100.00
61769;BME280;47669;48.712;9.016;2022-12-10T03:57:17;95343.28;;;-0.91;100.00
61769;BME280;47669;48.712;9.016;2022-12-10T03:59:42;95342.72;;;-1.02;100.00
61769;BME280;47669;48.712;9.016;2022-12-10T04:02:08;95348.00;;;-0.95;100.00
61769;BME280;47669;48.712;9.016;2022-12-10T04:04:33;95349.03;;;-1.04;100.00
61769;BME280;47669;48.712;9.016;2022-12-10T04:06:58;95358.63;;;-1.13;100.00
61769;BME280;47669;48.712;9.016;2022-12-10T04:09:23;95359.53;;;-1.06;100.00
61769;BME280;47669;48.712;9.016;2022-12-10T04:11:49;95363.63;;;-1.11;100.00
61769;BME280;47669;48.712;9.016;2022-12-10T04:14:14;95363.16;;;-1.15;100.00
61769;BME280;47669;48.712;9.016;2022-12-10T04:16:58;95372.38;;;-1.12;100.00
61769;BME280;47669;48.712;9.016;2022-12-10T04:19:24;95368.38;;;-1.00;100.00
61769;BME280;47669;48.712;9.016;2022-12-10T04:21:50;95372.38;;;-0.97;100.00
61769;BME280;47669;48.712;9.016;2022-12-10T04:24:35;95372.22;;;-1.11;100.00
61769;BME280;47669;48.712;9.016;2022-12-10T04:27:26;95372.63;;;-1.07;100.00
61769;BME280;47669;48.712;9.016;2022-12-10T04:29:52;95378.72;;;-1.00;100.00
61769;BME280;47669;48.712;9.016;2022-12-10T04:32:18;95374.97;;;-0.97;100.00
61769;BME280;47669;48.712;9.016;2022-12-10T04:34:43;95369.88;;;-1.06;100.00
61769;BME280;47669;48.712;9.016;2022-12-10T04:37:09;95369.00;;;-0.98;100.00
61769;BME280;47669;48.712;9.016;2022-12-10T04:39:36;95376.03;;;-1.07;100.00
61769;BME280;47669;48.712;9.016;2022-12-10T04:42:02;95369.63;;;-1.11;100.00
61769;BME280;47669;48.712;9.016;2022-12-10T04:44:27;95375.59;;;-1.10;100.00
61769;BME280;47669;48.712;9.016;2022-12-10T04:46:53;95377.16;;;-1.24;100.00
61769;BME280;47669;48.712;9.016;2022-12-10T04:49:18;95375.91;;;-1.13;100.00
61769;BME280;47669;48.712;9.016;2022-12-10T04:51:44;95380.38;;;-1.07;100.00
61769;BME280;47669;48.712;9.016;2022-12-10T04:54:09;95375.75;;;-1.12;100.00
61769;BME280;47669;48.712;9.016;2022-12-10T04:56:36;95380.75;;;-1.10;100.00
61769;BME280;47669;48.712;9.016;2022-12-10T04:59:02;95376.63;;;-1.20;100.00
61769;BME280;47669;48.712;9.016;2022-12-10T05:01:28;95373.41;;;-1.22;100.00
61769;BME280;47669;48.712;9.016;2022-12-10T05:03:54;95363.88;;;-1.21;100.00
61769;BME280;47669;48.712;9.016;2022-12-10T05:06:20;95364.69;;;-1.21;100.00
61769;BME280;47669;48.712;9.016;2022-12-10T05:08:46;95359.28;;;-1.11;100.00
61769;BME280;47669;48.712;9.016;2022-12-10T05:11:17;95358.00;;;-1.15;100.00
61769;BME280;47669;48.712;9.016;2022-12-10T05:13:43;95358.44;;;-1.26;100.00
61769;BME280;47669;48.712;9.016;2022-12-10T05:16:10;95364.56;;;-1.27;100.00
61769;BME280;47669;48.712;9.016;2022-12-10T05:18:36;95368.56;;;-1.25;100.00
61769;BME280;47669;48.712;9.016;2022-12-10T05:21:05;95365.66;;;-1.22;100.00
61769;BME280;47669;48.712;9.016;2022-12-10T05:23:31;95372.69;;;-1.30;100.00
61769;BME280;47669;48.712;9.016;2022-12-10T05:26:04;95368.31;;;-1.30;100.00
61769;BME280;47669;48.712;9.016;2022-12-10T05:28:32;95367.53;;;-1.30;100.00
61769;BME280;47669;48.712;9.016;2022-12-10T05:30:58;95368.19;;;-1.36;100.00
61769;BME280;47669;48.712;9.016;2022-12-10T05:33:24;95376.22;;;-1.31;100.00
61769;BME280;47669;48.712;9.016;2022-12-10T05:35:58;95368.66;;;-1.33;100.00
61769;BME280;47669;48.712;9.016;2022-12-10T05:38:25;95373.00;;;-1.33;100.00
61769;BME280;47669;48.712;9.016;2022-12-10T05:40:52;95376.56;;;-1.34;100.00
61769;BME280;47669;48.712;9.016;2022-12-10T05:43:18;95378.09;;;-1.40;100.00
61769;BME280;47669;48.712;9.016;2022-12-10T05:45:43;95376.91;;;-1.37;100.00
61769;BME280;47669;48.712;9.016;2022-12-10T05:48:10;95376.13;;;-1.38;100.00
61769;BME280;47669;48.712;9.016;2022-12-10T05:50:36;95376.13;;;-1.38;100.00
61769;BME280;47669;48.712;9.016;2022-12-10T05:53:01;95374.91;;;-1.50;100.00
61769;BME280;47669;48.712;9.016;2022-12-10T05:55:31;95377.53;;;-1.59;100.00
61769;BME280;47669;48.712;9.016;2022-12-10T05:57:59;95382.47;;;-1.49;100.00
61769;BME280;47669;48.712;9.016;2022-12-10T06:00:24;95377.47;;;-1.50;100.00
61769;BME280;47669;48.712;9.016;2022-12-10T06:02:50;95387.06;;;-1.59;100.00
61769;BME280;47669;48.712;9.016;2022-12-10T06:05:16;95389.28;;;-1.56;100.00
61769;BME280;47669;48.712;9.016;2022-12-10T06:07:41;95396.94;;;-1.63;100.00
61769;BME280;47669;48.712;9.016;2022-12-10T06:10:07;95400.19;;;-1.69;100.00
61769;BME280;47669;48.712;9.016;2022-12-10T06:12:33;95398.50;;;-1.53;100.00
61769;BME280;47669;48.712;9.016;2022-12-10T06:14:58;95397.97;;;-1.49;100.00
61769;BME280;47669;48.712;9.016;2022-12-10T06:17:23;95404.53;;;-1.69;100.00
61769;BME280;47669;48.712;9.016;2022-12-10T06:19:49;95404.72;;;-1.71;100.00
61769;BME280;47669;48.712;9.016;2022-12-10T06:22:14;95399.56;;;-1.71;100.00
61769;BME280;47669;48.712;9.016;2022-12-10T06:24:39;95406.84;;;-1.74;100.00
61769;BME280;47669;48.712;9.016;2022-12-10T06:27:05;95412.94;;;-1.67;100.00
61769;BME280;47669;48.712;9.016;2022-12-10T06:29:30;95411.47;;;-1.70;100.00
61769;BME280;47669;48.712;9.016;2022-12-10T06:31:56;95414.22;;;-1.71;100.00
61769;BME280;47669;48.712;9.016;2022-12-10T06:34:21;95422.69;;;-1.54;100.00
61769;BME280;47669;48.712;9.016;2022-12-10T06:53:25;95448.09;;;-1.66;100.00
61769;BME280;47669;48.712;9.016;2022-12-10T06:55:50;95441.81;;;-1.72;100.00
61769;BME280;47669;48.712;9.016;2022-12-10T06:58:16;95438.50;;;-1.89;100.00
61769;BME280;47669;48.712;9.016;2022-12-10T07:00:41;95446.72;;;-1.77;100.00
61769;BME280;47669;48.712;9.016;2022-12-10T07:03:07;95443.72;;;-1.66;100.00
61769;BME280;47669;48.712;9.016;2022-12-10T07:05:33;95440.38;;;-1.74;100.00
61769;BME280;47669;48.712;9.016;2022-12-10T07:08:04;95442.19;;;-1.75;100.00
61769;BME280;47669;48.712;9.016;2022-12-10T07:10:32;95440.34;;;-1.66;100.00
61769;BME280;47669;48.712;9.016;2022-12-10T07:12:57;95452.50;;;-1.83;100.00
61769;BME280;47669;48.712;9.016;2022-12-10T07:15:26;95455.59;;;-1.88;100.00
61769;BME280;47669;48.712;9.016;2022-12-10T07:17:53;95457.03;;;-1.85;100.00
61769;BME280;47669;48.712;9.016;2022-12-10T07:20:28;95451.59;;;-1.90;100.00
61769;BME280;47669;48.712;9.016;2022-12-10T07:22:56;95461.88;;;-1.82;100.00
61769;BME280;47669;48.712;9.016;2022-12-10T07:25:21;95461.88;;;-1.82;100.00
61769;BME280;47669;48.712;9.016;2022-12-10T07:27:47;95467.16;;;-1.67;100.00
61769;BME280;47669;48.712;9.016;2022-12-10T07:30:32;95472.44;;;-1.61;100.00
61769;BME280;47669;48.712;9.016;2022-12-10T07:32:58;95469.94;;;-1.77;100.00
61769;BME280;47669;48.712;9.016;2022-12-10T07:35:24;95473.75;;;-1.65;100.00
61769;BME280;47669;48.712;9.016;2022-12-10T07:37:49;95473.06;;;-1.59;100.00
61769;BME280;47669;48.712;9.016;2022-12-10T07:40:15;95470.56;;;-1.75;100.00
61769;BME280;47669;48.712;9.016;2022-12-10T07:42:43;95463.38;;;-1.56;100.00
61769;BME280;47669;48.712;9.016;2022-12-10T07:45:10;95469.69;;;-1.59;100.00
61769;BME280;47669;48.712;9.016;2022-12-10T07:47:37;95473.16;;;-1.75;100.00
61769;BME280;47669;48.712;9.016;2022-12-10T07:50:06;95475.97;;;-1.62;100.00
61769;BME280;47669;48.712;9.016;2022-12-10T07:52:40;95477.75;;;-1.62;100.00
61769;BME280;47669;48.712;9.016;2022-12-10T07:55:05;95483.28;;;-1.65;100.00
61769;BME280;47669;48.712;9.016;2022-12-10T07:57:31;95489.84;;;-1.63;100.00
61769;BME280;47669;48.712;9.016;2022-12-10T07:59:56;95491.00;;;-1.65;100.00
61769;BME280;47669;48.712;9.016;2022-12-10T08:02:23;95492.75;;;-1.57;100.00
61769;BME280;47669;48.712;9.016;2022-12-10T08:04:51;95490.97;;;-1.57;100.00
61769;BME280;47669;48.712;9.016;2022-12-10T08:07:18;95488.34;;;-1.49;100.00
61769;BME280;47669;48.712;9.016;2022-12-10T08:09:44;95488.38;;;-1.57;100.00
61769;BME280;47669;48.712;9.016;2022-12-10T08:12:09;95485.44;;;-1.54;100.00
61769;BME280;47669;48.712;9.016;2022-12-10T08:14:35;95485.44;;;-1.54;100.00
61769;BME280;47669;48.712;9.016;2022-12-10T08:17:00;95491.09;;;-1.50;100.00
61769;BME280;47669;48.712;9.016;2022-12-10T08:19:25;95482.38;;;-1.49;100.00
61769;BME280;47669;48.712;9.016;2022-12-10T08:21:51;95487.19;;;-1.46;100.00
61769;BME280;47669;48.712;9.016;2022-12-10T08:24:16;95485.03;;;-1.34;100.00
61769;BME280;47669;48.712;9.016;2022-12-10T08:26:41;95476.47;;;-1.35;100.00
61769;BME280;47669;48.712;9.016;2022-12-10T08:29:07;95482.03;;;-1.46;100.00
61769;BME280;47669;48.712;9.016;2022-12-10T08:31:36;95486.31;;;-1.30;100.00
61769;BME280;47669;48.712;9.016;2022-12-10T08:40:23;95512.16;;;-1.30;100.00
61769;BME280;47669;48.712;9.016;2022-12-10T08:42:48;95513.28;;;-1.33;100.00
61769;BME280;47669;48.712;9.016;2022-12-10T08:45:13;95506.22;;;-1.39;100.00
61769;BME280;47669;48.712;9.016;2022-12-10T08:47:39;95509.25;;;-1.35;100.00
61769;BME280;47669;48.712;9.016;2022-12-10T08:50:04;95514.22;;;-1.26;100.00
61769;BME280;47669;48.712;9.016;2022-12-10T08:52:30;95504.88;;;-1.35;100.00
61769;BME280;47669;48.712;9.016;2022-12-10T08:54:55;95510.63;;;-1.25;100.00
61769;BME280;47669;48.712;9.016;2022-12-10T08:57:20;95507.47;;;-1.35;100.00
61769;BME280;47669;48.712;9.016;2022-12-10T08:59:45;95505.25;;;-1.38;100.00
61769;BME280;47669;48.712;9.016;2022-12-10T09:02:11;95514.75;;;-1.39;100.00
61769;BME280;47669;48.712;9.016;2022-12-10T09:04:36;95520.75;;;-1.46;100.00
61769;BME280;47669;48.712;9.016;2022-12-10T09:07:02;95523.53;;;-1.48;100.00
61769;BME280;47669;48.712;9.016;2022-12-10T09:09:28;95527.59;;;-1.53;100.00
61769;BME280;47669;48.712;9.016;2022-12-10T09:11:53;95532.13;;;-1.24;100.00
61769;BME280;47669;48.712;9.016;2022-12-10T09:14:18;95524.13;;;-1.37;100.00
61769;BME280;47669;48.712;9.016;2022-12-10T09:16:44;95541.63;;;-1.16;100.00
61769;BME280;47669;48.712;9.016;2022-12-10T09:19:09;95551.00;;;-1.24;100.00
61769;BME280;47669;48.712;9.016;2022-12-10T09:21:35;95542.94;;;-1.29;100.00
61769;BME280;47669;48.712;9.016;2022-12-10T09:24:00;95543.22;;;-1.15;100.00
61769;BME280;47669;48.712;9.016;2022-12-10T09:26:25;95552.38;;;-1.36;100.00
61769;BME280;47669;48.712;9.016;2022-12-10T09:28:51;95544.16;;;-1.40;100.00
61769;BME280;47669;48.712;9.016;2022-12-10T09:31:19;95550.56;;;-1.35;100.00
61769;BME280;47669;48.712;9.016;2022-12-10T09:33:45;95547.84;;;-1.42;100.00
61769;BME280;47669;48.712;9.016;2022-12-10T09:36:12;95545.53;;;-1.29;100.00
61769;BME280;47669;48.712;9.016;2022-12-10T09:38:40;95555.16;;;-1.46;100.00
61769;BME280;47669;48.712;9.016;2022-12-10T09:44:36;95558.28;;;-0.96;100.00
61769;BME280;47669;48.712;9.016;2022-12-10T09:47:05;95552.91;;;-1.17;100.00
61769;BME280;47669;48.712;9.016;2022-12-10T09:52:04;95553.06;;;-1.19;100.00
61769;BME280;47669;48.712;9.016;2022-12-10T09:57:19;95553.31;;;-1.06;100.00
61769;BME280;47669;48.712;9.016;2022-12-10T09:59:49;95555.75;;;-1.04;100.00
61769;BME280;47669;48.712;9.016;2022-12-10T10:04:40;95556.47;;;-1.18;100.00
61769;BME280;47669;48.712;9.016;2022-12-10T10:07:06;95550.47;;;-1.11;100.00
61769;BME280;47669;48.712;9.016;2022-12-10T10:09:36;95547.31;;;-0.75;100.00
61769;BME280;47669;48.712;9.016;2022-12-10T10:12:11;95546.72;;;-1.08;100.00
61769;BME280;47669;48.712;9.016;2022-12-10T10:14:38;95552.47;;;-0.98;100.00
61769;BME280;47669;48.712;9.016;2022-12-10T10:17:10;95551.22;;;-0.79;100.00
61769;BME280;47669;48.712;9.016;2022-12-10T10:19:37;95552.78;;;-0.93;100.00
61769;BME280;47669;48.712;9.016;2022-12-10T10:22:04;95548.63;;;-1.02;100.00
61769;BME280;47669;48.712;9.016;2022-12-10T10:24:36;95544.44;;;-0.80;100.00
61769;BME280;47669;48.712;9.016;2022-12-10T10:27:12;95546.03;;;-1.02;100.00
61769;BME280;47669;48.712;9.016;2022-12-10T10:29:39;95534.72;;;-0.78;100.00
61769;BME280;47669;48.712;9.016;2022-12-10T10:32:19;95538.69;;;-0.90;100.00
61769;BME280;47669;48.712;9.016;2022-12-10T10:34:47;95534.75;;;-1.01;100.00
61769;BME280;47669;48.712;9.016;2022-12-10T10:37:29;95527.84;;;-1.09;100.00
61769;BME280;47669;48.712;9.016;2022-12-10T10:39:56;95526.53;;;-1.05;100.00
61769;BME280;47669;48.712;9.016;2022-12-10T10:44:52;95535.94;;;-0.89;100.00
61769;BME280;47669;48.712;9.016;2022-12-10T10:47:32;95549.06;;;-0.67;100.00
61769;BME280;47669;48.712;9.016;2022-12-10T10:49:58;95546.63;;;-0.69;100.00
61769;BME280;47669;48.712;9.016;2022-12-10T10:52:28;95559.78;;;-0.32;100.00
61769;BME280;47669;48.712;9.016;2022-12-10T10:54:53;95552.88;;;-0.40;100.00
61769;BME280;47669;48.712;9.016;2022-12-10T10:57:28;95539.41;;;-0.35;100.00
61769;BME280;47669;48.712;9.016;2022-12-10T11:00:10;95548.59;;;-0.71;100.00
61769;BME280;47669;48.712;9.016;2022-12-10T11:02:42;95560.06;;;-0.27;100.00
61769;BME280;47669;48.712;9.016;2022-12-10T11:05:22;95554.84;;;-0.42;100.00
61769;BME280;47669;48.712;9.016;2022-12-10T11:08:06;95557.31;;;-0.49;100.00
61769;BME280;47669;48.712;9.016;2022-12-10T11:10:50;95554.59;;;-0.32;100.00
61769;BME280;47669;48.712;9.016;2022-12-10T11:13:25;95553.22;;;-0.43;100.00
61769;BME280;47669;48.712;9.016;2022-12-10T11:16:01;95539.78;;;-0.38;100.00
61769;BME280;47669;48.712;9.016;2022-12-10T11:18:36;95544.84;;;0.08;100.00
61769;BME280;47669;48.712;9.016;2022-12-10T11:21:25;95542.22;;;-0.60;100.00
61769;BME280;47669;48.712;9.016;2022-12-10T11:23:54;95551.06;;;-0.54;100.00
61769;BME280;47669;48.712;9.016;2022-12-10T11:35:11;95547.94;;;-0.50;100.00
61769;BME280;47669;48.712;9.016;2022-12-10T11:41:07;95546.75;;;-0.62;100.00
61769;BME280;47669;48.712;9.016;2022-12-10T12:00:26;95541.75;;;-0.26;100.00
61769;BME280;47669;48.712;9.016;2022-12-10T12:03:47;95539.81;;;-0.24;100.00
61769;BME280;47669;48.712;9.016;2022-12-10T12:06:24;95544.34;;;-0.26;100.00
61769;BME280;47669;48.712;9.016;2022-12-10T12:09:19;95553.91;;;-0.26;100.00
61769;BME280;47669;48.712;9.016;2022-12-10T12:14:40;95545.03;;;0.06;100.00
61769;BME280;47669;48.712;9.016;2022-12-10T12:17:16;95556.56;;;-0.20;100.00
61769;BME280;47669;48.712;9.016;2022-12-10T12:19:51;95560.09;;;-0.12;100.00
61769;BME280;47669;48.712;9.016;2022-12-10T12:22:29;95567.88;;;-0.35;100.00
61769;BME280;47669;48.712;9.016;2022-12-10T12:25:03;95569.81;;;-0.14;100.00
61769;BME280;47669;48.712;9.016;2022-12-10T12:27:35;95575.72;;;-0.06;100.00
61769;BME280;47669;48.712;9.016;2022-12-10T12:30:06;95564.63;;;-0.52;100.00
61769;BME280;47669;48.712;9.016;2022-12-10T12:32:44;95571.22;;;-0.27;100.00
61769;BME280;47669;48.712;9.016;2022-12-10T12:35:20;95572.00;;;-0.26;100.00
61769;BME280;47669;48.712;9.016;2022-12-10T12:37:56;95576.22;;;-0.10;100.00
61769;BME280;47669;48.712;9.016;2022-12-10T12:41:13;95579.22;;;-0.22;100.00
61769;BME280;47669;48.712;9.016;2022-12-10T12:43:58;95580.56;;;0.27;100.00
61769;BME280;47669;48.712;9.016;2022-12-10T12:46:47;95584.78;;;0.43;100.00
61769;BME280;47669;48.712;9.016;2022-12-10T12:49:35;95588.38;;;-0.11;100.00
61769;BME280;47669;48.712;9.016;2022-12-10T12:54:50;95588.84;;;0.08;100.00
61769;BME280;47669;48.712;9.016;2022-12-10T13:00:09;95587.13;;;-0.15;100.00
61769;BME280;47669;48.712;9.016;2022-12-10T13:05:30;95602.31;;;0.03;100.00
61769;BME280;47669;48.712;9.016;2022-12-10T13:13:39;95590.97;;;-0.34;100.00
61769;BME280;47669;48.712;9.016;2022-12-10T13:27:18;95607.72;;;-0.45;100.00
61769;BME280;47669;48.712;9.016;2022-12-10T13:30:00;95626.63;;;-0.44;100.00
61769;BME280;47669;48.712;9.016;2022-12-10T13:43:42;95636.94;;;-0.67;100.00
61769;BME280;47669;48.712;9.016;2022-12-10T13:49:00;95648.09;;;-0.67;100.00
61769;BME280;47669;48.712;9.016;2022-12-10T13:51:29;95654.31;;;-0.84;100.00
61769;BME280;47669;48.712;9.016;2022-12-10T13:59:43;95667.25;;;-0.84;100.00
61769;BME280;47669;48.712;9.016;2022-12-10T14:07:39;95677.16;;;-0.96;100.00
61769;BME280;47669;48.712;9.016;2022-12-10T14:10:13;95674.03;;;-0.83;100.00
61769;BME280;47669;48.712;9.016;2022-12-10T14:12:41;95686.69;;;-0.96;100.00
61769;BME280;47669;48.712;9.016;2022-12-10T14:15:18;95676.50;;;-0.98;100.00
61769;BME280;47669;48.712;9.016;2022-12-10T14:17:45;95684.34;;;-0.75;100.00
61769;BME280;47669;48.712;9.016;2022-12-10T14:20:18;95690.03;;;-0.88;100.00
61769;BME280;47669;48.712;9.016;2022-12-10T14:22:49;95687.75;;;-0.83;100.00
61769;BME280;47669;48.712;9.016;2022-12-10T14:25:20;95682.78;;;-0.92;100.00
61769;BME280;47669;48.712;9.016;2022-12-10T14:27:48;95688.09;;;-0.86;100.00
61769;BME280;47669;48.712;9.016;2022-12-10T14:30:16;95697.69;;;-1.03;100.00
61769;BME280;47669;48.712;9.016;2022-12-10T14:32:43;95696.19;;;-0.89;100.00
61769;BME280;47669;48.712;9.016;2022-12-10T14:35:16;95691.22;;;-0.98;100.00
61769;BME280;47669;48.712;9.016;2022-12-10T14:37:45;95696.06;;;-1.04;100.00
61769;BME280;47669;48.712;9.016;2022-12-10T14:40:26;95699.56;;;-0.88;100.00
61769;BME280;47669;48.712;9.016;2022-12-10T14:42:59;95694.88;;;-0.85;100.00
61769;BME280;47669;48.712;9.016;2022-12-10T14:45:31;95702.38;;;-1.06;100.00
61769;BME280;47669;48.712;9.016;2022-12-10T14:48:03;95712.03;;;-0.92;100.00
61769;BME280;47669;48.712;9.016;2022-12-10T14:50:32;95715.56;;;-0.85;100.00
61769;BME280;47669;48.712;9.016;2022-12-10T14:52:57;95714.66;;;-1.08;100.00
61769;BME280;47669;48.712;9.016;2022-12-10T14:55:23;95719.78;;;-0.92;100.00
61769;BME280;47669;48.712;9.016;2022-12-10T14:57:53;95727.72;;;-1.02;100.00
61769;BME280;47669;48.712;9.016;2022-12-10T15:00:20;95732.91;;;-1.10;100.00
61769;BME280;47669;48.712;9.016;2022-12-10T15:03:08;95731.78;;;-0.99;100.00
61769;BME280;47669;48.712;9.016;2022-12-10T15:05:35;95735.34;;;-1.08;100.00
61769;BME280;47669;48.712;9.016;2022-12-10T15:08:14;95733.13;;;-1.28;100.00
61769;BME280;47669;48.712;9.016;2022-12-10T15:10:43;95737.47;;;-1.20;100.00
61769;BME280;47669;48.712;9.016;2022-12-10T15:13:24;95736.66;;;-1.29;100.00